Time;durP1;ratioP1;P1;durP2;ratioP2;P2;SDS_P1;SDS_P2;PMS_P1;PMS_P2;Temp;Humidity;BMP_temperature;BMP_pressure;BME280_temperature;BME280_humidity;BME280_pressure;Samples;Min_cycle;Max_cycle;Signal;HPM_P1;HPM_P2
2022/12/27 00:00:51;;;;;;;1.27;0.38;;;;;;;0.38;100.00;101565.16;5016467;28;20087;-57
2022/12/27 00:03:16;;;;;;;0.22;0.10;;;;;;;0.46;100.00;101568.13;5019312;28;20102;-55
2022/12/27 00:05:46;;;;;;;1.35;0.28;;;;;;;0.43;100.00;101568.31;5022609;28;20037;-56
2022/12/27 00:08:11;;;;;;;4.15;0.32;;;;;;;0.32;100.00;101566.41;5016944;28;20044;-55
2022/12/27 00:10:37;;;;;;;1.10;0.70;;;;;;;0.30;100.00;101563.06;5017738;28;20029;-58
2022/12/27 00:13:03;;;;;;;2.58;0.15;;;;;;;0.25;100.00;101572.09;5013560;28;20041;-57
2022/12/27 00:15:29;;;;;;;0.35;0.15;;;;;;;0.06;100.00;101565.44;5013237;28;20046;-57
2022/12/27 00:17:54;;;;;;;0.68;0.28;;;;;;;-0.04;100.00;101574.78;5020762;28;20140;-58
2022/12/27 00:20:20;;;;;;;0.93;0.82;;;;;;;-0.04;100.00;101582.59;5016345;28;20041;-56
2022/12/27 00:22:45;;;;;;;0.30;0.10;;;;;;;-0.08;100.00;101587.19;5020589;28;20034;-57
2022/12/27 00:25:11;;;;;;;2.92;0.28;;;;;;;-0.11;100.00;101589.13;5023215;28;20025;-57
2022/12/27 00:27:37;;;;;;;0.68;0.20;;;;;;;-0.26;100.00;101588.28;5024107;28;20030;-55
2022/12/27 00:30:04;;;;;;;3.60;0.22;;;;;;;-0.27;100.00;101586.63;5027312;28;20044;-54
2022/12/27 00:32:29;;;;;;;2.45;0.57;;;;;;;-0.34;100.00;101583.53;5018807;28;20184;-55
2022/12/27 00:34:55;;;;;;;2.15;0.10;;;;;;;-0.37;100.00;101575.09;5022288;28;20037;-53
2022/12/27 00:37:20;;;;;;;1.95;0.50;;;;;;;-0.41;100.00;101577.06;5021507;28;20051;-55
2022/12/27 00:39:46;;;;;;;3.63;0.30;;;;;;;-0.48;100.00;101581.78;5021987;28;20025;-57
2022/12/27 00:42:11;;;;;;;2.50;0.32;;;;;;;-0.49;100.00;101587.06;5019468;28;20399;-55
2022/12/27 00:44:36;;;;;;;3.08;0.50;;;;;;;-0.57;100.00;101584.09;5016735;28;20030;-55
2022/12/27 00:47:02;;;;;;;1.75;0.30;;;;;;;-0.70;100.00;101587.47;5014115;28;20459;-59
2022/12/27 00:49:27;;;;;;;1.10;0.28;;;;;;;-0.79;100.00;101577.56;5019801;28;20049;-56
2022/12/27 00:51:53;;;;;;;2.22;1.00;;;;;;;-0.89;100.00;101582.47;5019349;28;20475;-59
2022/12/27 00:54:18;;;;;;;4.22;0.60;;;;;;;-0.88;100.00;101585.91;5017722;28;20053;-56
2022/12/27 00:56:43;;;;;;;1.05;0.52;;;;;;;-0.98;100.00;101590.84;5015968;28;20033;-59
2022/12/27 00:59:10;;;;;;;0.55;0.15;;;;;;;-1.02;100.00;101588.50;5019498;28;20439;-58
2022/12/27 01:01:36;;;;;;;0.45;0.22;;;;;;;-1.12;100.00;101578.59;5017074;28;20104;-54
2022/12/27 01:04:03;;;;;;;2.30;0.47;;;;;;;-1.07;100.00;101580.13;5016916;28;20506;-55
2022/12/27 01:06:31;;;;;;;0.93;0.30;;;;;;;-1.02;100.00;101588.50;5017077;28;20068;-52
2022/12/27 01:08:57;;;;;;;2.28;0.75;;;;;;;-1.07;100.00;101580.13;5020609;28;20033;-58
2022/12/27 01:11:24;;;;;;;0.73;0.20;;;;;;;-1.10;100.00;101581.97;5018361;28;20206;-56
2022/12/27 01:13:50;;;;;;;2.83;0.10;;;;;;;-1.14;100.00;101582.22;5018082;28;20030;-58
2022/12/27 01:16:21;;;;;;;0.73;0.30;;;;;;;-1.15;100.00;101583.16;5020676;28;20029;-57
2022/12/27 01:18:47;;;;;;;0.25;0.20;;;;;;;-1.21;100.00;101581.75;5015875;28;20122;-55
2022/12/27 01:21:14;;;;;;;0.65;0.17;;;;;;;-1.26;100.00;101582.94;5019248;28;20113;-58
2022/12/27 01:23:40;;;;;;;0.70;0.22;;;;;;;-1.31;100.00;101578.00;5019908;28;20026;-54
2022/12/27 01:26:15;;;;;;;2.85;0.20;;;;;;;-1.33;100.00;101583.28;5019262;28;20378;-58
2022/12/27 01:28:40;;;;;;;0.50;0.25;;;;;;;-1.36;100.00;101585.22;5018389;28;20025;-57
2022/12/27 01:31:08;;;;;;;0.43;0.10;;;;;;;-1.30;100.00;101582.25;5019158;28;20065;-59
2022/12/27 01:33:33;;;;;;;0.80;0.30;;;;;;;-1.35;100.00;101584.28;5026741;28;20124;-59
2022/12/27 01:36:07;;;;;;;0.70;0.40;;;;;;;-1.38;100.00;101587.91;5015329;28;20108;-59
2022/12/27 01:38:33;;;;;;;2.50;0.10;;;;;;;-1.37;100.00;101580.94;5017681;28;20061;-56
2022/12/27 01:40:58;;;;;;;0.88;0.17;;;;;;;-1.47;100.00;101584.97;5022741;28;20509;-56
2022/12/27 01:43:37;;;;;;;1.20;0.10;;;;;;;-1.49;100.00;101586.84;5014850;28;20065;-59
2022/12/27 01:46:02;;;;;;;0.32;0.00;;;;;;;-1.63;100.00;101601.44;5018909;28;20033;-58
2022/12/27 01:48:27;;;;;;;0.63;0.00;;;;;;;-1.69;100.00;101599.19;5017597;28;20502;-60
2022/12/27 01:51:01;;;;;;;0.52;0.20;;;;;;;-1.70;100.00;101602.72;5018134;28;20068;-58
2022/12/27 01:53:32;;;;;;;0.65;0.00;;;;;;;-1.80;100.00;101604.13;5024029;28;20080;-59
2022/12/27 01:56:02;;;;;;;0.45;0.10;;;;;;;-1.80;100.00;101604.97;5023366;28;20030;-58
2022/12/27 01:58:42;;;;;;;2.42;0.10;;;;;;;-1.81;100.00;101602.44;5025387;28;20037;-56
2022/12/27 02:01:12;;;;;;;0.70;0.20;;;;;;;-1.80;100.00;101607.56;5034461;28;20034;-60
2022/12/27 02:04:00;;;;;;;2.20;0.32;;;;;;;-1.77;100.00;101607.41;5018695;28;20068;-62
2022/12/27 02:06:28;;;;;;;0.22;0.10;;;;;;;-1.85;100.00;101612.19;5021425;28;20041;-60
2022/12/27 02:08:57;;;;;;;0.10;0.10;;;;;;;-1.88;100.00;101606.31;5023228;28;20487;-62
2022/12/27 02:14:13;;;;;;;1.73;0.63;;;;;;;-1.97;100.00;101602.44;5022472;28;20040;-61
2022/12/27 02:16:39;;;;;;;0.03;0.03;;;;;;;-1.97;100.00;101608.47;5020153;28;20536;-61
2022/12/27 02:19:14;;;;;;;1.90;0.10;;;;;;;-1.96;100.00;101617.13;5021179;28;20116;-61
2022/12/27 02:21:52;;;;;;;3.45;0.10;;;;;;;-1.91;100.00;101615.13;5028905;28;20022;-61
2022/12/27 02:24:36;;;;;;;4.60;0.20;;;;;;;-1.98;100.00;101616.38;5022056;28;20033;-62
2022/12/27 02:27:06;;;;;;;0.20;0.00;;;;;;;-2.00;100.00;101624.25;5024443;28;20033;-61
2022/12/27 02:29:57;;;;;;;2.15;0.00;;;;;;;-2.00;100.00;101634.63;5026680;28;20372;-61
2022/12/27 02:32:31;;;;;;;9.32;0.47;;;;;;;-1.99;100.00;101633.72;5023815;28;20069;-61
2022/12/27 02:35:17;;;;;;;0.98;0.15;;;;;;;-2.00;100.00;101629.44;5018995;28;20083;-60
2022/12/27 02:37:57;;;;;;;0.10;0.10;;;;;;;-2.07;100.00;101643.66;5029374;28;20029;-61
2022/12/27 02:55:14;;;;;;;2.30;0.10;;;;;;;-1.84;100.00;101639.00;5026017;28;20036;-60
2022/12/27 02:57:45;;;;;;;1.60;0.10;;;;;;;-1.93;100.00;101635.16;5019864;28;20041;-61
2022/12/27 03:03:22;;;;;;;4.05;0.80;;;;;;;-2.16;100.00;101638.13;5033208;28;20126;-61
2022/12/27 03:06:39;;;;;;;1.67;0.13;;;;;;;-2.24;100.00;101643.75;5032586;28;20021;-60
2022/12/27 03:18:02;;;;;;;0.52;0.32;;;;;;;-2.27;100.00;101638.69;5029433;28;20075;-62
2022/12/27 03:25:57;;;;;;;1.02;0.00;;;;;;;-2.30;100.00;101647.47;5016820;28;20139;-61
2022/12/27 03:39:48;;;;;;;0.20;0.10;;;;;;;-2.49;100.00;101626.81;5027998;28;20542;-61
2022/12/27 03:45:07;;;;;;;0.00;0.00;;;;;;;-2.48;100.00;101632.84;5027577;28;20092;-61
2022/12/27 03:47:48;;;;;;;0.05;0.00;;;;;;;-2.57;100.00;101634.16;5024324;28;20035;-61
2022/12/27 03:50:22;;;;;;;1.00;0.10;;;;;;;-2.53;100.00;101640.88;5027803;28;20108;-60
2022/12/27 03:52:56;;;;;;;0.90;0.28;;;;;;;-2.46;100.00;101639.63;5018361;28;20034;-61
2022/12/27 03:55:22;;;;;;;0.15;0.10;;;;;;;-2.45;100.00;101637.91;5023949;28;20037;-60
2022/12/27 03:57:48;;;;;;;0.32;0.00;;;;;;;-2.51;100.00;101633.81;5023011;28;20386;-61
2022/12/27 04:00:14;;;;;;;0.55;0.32;;;;;;;-2.46;100.00;101631.84;5018495;28;20034;-61
2022/12/27 04:02:40;;;;;;;0.35;0.22;;;;;;;-2.51;100.00;101628.63;5018968;28;20034;-61
2022/12/27 04:05:06;;;;;;;0.75;0.10;;;;;;;-2.40;100.00;101628.13;5027305;28;20482;-60
2022/12/27 04:07:31;;;;;;;0.68;0.20;;;;;;;-2.34;100.00;101638.19;5023743;28;20034;-60
2022/12/27 04:34:42;;;;;;;0.88;0.05;;;;;;;-2.63;100.00;101618.91;5037320;28;20125;-62
2022/12/27 04:37:10;;;;;;;2.58;0.10;;;;;;;-2.62;100.00;101615.38;5022251;28;20434;-61
2022/12/27 04:39:35;;;;;;;0.50;0.20;;;;;;;-2.52;100.00;101606.19;5033159;28;20045;-62
2022/12/27 04:56:01;;;;;;;0.55;0.20;;;;;;;-2.31;100.00;101613.78;5026126;28;20039;-62
2022/12/27 04:58:27;;;;;;;1.55;0.08;;;;;;;-2.29;100.00;101607.59;5030934;28;20042;-62
2022/12/27 05:03:38;;;;;;;0.22;0.10;;;;;;;-2.46;100.00;101605.88;5025488;28;20399;-62
2022/12/27 05:06:05;;;;;;;0.60;0.00;;;;;;;-2.47;100.00;101606.78;5039832;28;20490;-62
2022/12/27 05:14:00;;;;;;;2.67;0.45;;;;;;;-2.36;100.00;101615.78;5027562;28;20543;-62
2022/12/27 05:16:30;;;;;;;1.38;0.35;;;;;;;-2.36;100.00;101626.19;5024036;28;20052;-63
2022/12/27 05:18:55;;;;;;;0.10;0.10;;;;;;;-2.26;100.00;101624.78;5033822;28;20083;-62
2022/12/27 05:21:21;;;;;;;1.75;0.28;;;;;;;-2.26;100.00;101623.03;5026772;28;20033;-62
2022/12/27 05:26:31;;;;;;;0.88;0.35;;;;;;;-2.19;100.00;101615.75;5027436;28;20040;-62
2022/12/27 05:28:58;;;;;;;0.13;0.10;;;;;;;-2.11;100.00;101613.59;5030367;28;20033;-62
2022/12/27 05:31:25;;;;;;;0.40;0.05;;;;;;;-2.09;100.00;101619.53;5027317;28;20064;-62
2022/12/27 05:33:52;;;;;;;0.40;0.20;;;;;;;-2.13;100.00;101610.22;5030426;28;20086;-62
2022/12/27 05:36:18;;;;;;;0.57;0.10;;;;;;;-2.14;100.00;101605.09;5026068;28;20045;-63
2022/12/27 05:38:43;;;;;;;0.10;0.00;;;;;;;-2.20;100.00;101609.69;5030976;28;20509;-61
2022/12/27 05:41:09;;;;;;;1.02;0.20;;;;;;;-2.23;100.00;101609.03;5022129;28;20073;-62
2022/12/27 05:43:35;;;;;;;0.32;0.10;;;;;;;-2.21;100.00;101607.19;5035083;28;20068;-62
2022/12/27 05:46:17;;;;;;;0.43;0.05;;;;;;;-2.15;100.00;101603.44;5043724;28;20412;-62
2022/12/27 05:48:43;;;;;;;1.05;0.10;;;;;;;-2.12;100.00;101604.09;5020145;28;20439;-63
2022/12/27 05:51:18;;;;;;;0.32;0.20;;;;;;;-2.05;100.00;101609.81;5031219;28;20043;-63
2022/12/27 05:53:44;;;;;;;0.20;0.00;;;;;;;-2.08;100.00;101603.03;5032163;28;20136;-62
2022/12/27 05:56:15;;;;;;;2.35;0.10;;;;;;;-2.04;100.00;101601.09;5031522;28;20032;-63
2022/12/27 05:58:41;;;;;;;3.10;0.45;;;;;;;-2.06;100.00;101596.00;5021067;28;20354;-63
2022/12/27 06:01:08;;;;;;;1.20;0.77;;;;;;;-2.04;100.00;101586.34;5035102;28;20025;-63
2022/12/27 06:03:35;;;;;;;1.85;0.30;;;;;;;-2.03;100.00;101582.81;5025284;28;20113;-63
2022/12/27 06:06:01;;;;;;;1.52;0.68;;;;;;;-1.98;100.00;101580.81;5018915;28;20085;-63
2022/12/27 06:08:27;;;;;;;4.07;0.68;;;;;;;-1.92;100.00;101578.81;5031233;28;20065;-63
2022/12/27 06:11:05;;;;;;;0.22;0.00;;;;;;;-1.87;100.00;101590.63;5022523;28;20064;-63
2022/12/27 06:13:31;;;;;;;1.02;0.22;;;;;;;-1.89;100.00;101576.03;5022251;28;20270;-62
2022/12/27 06:16:01;;;;;;;2.83;0.30;;;;;;;-1.84;100.00;101579.22;5028541;28;20486;-61
2022/12/27 06:18:29;;;;;;;1.95;0.20;;;;;;;-1.83;100.00;101573.13;5027333;28;20030;-62
2022/12/27 06:20:59;;;;;;;1.83;0.17;;;;;;;-1.80;100.00;101563.38;5031472;28;20084;-63
2022/12/27 06:23:24;;;;;;;0.98;0.47;;;;;;;-1.78;100.00;101558.94;5026163;28;20497;-64
2022/12/27 06:25:50;;;;;;;0.82;0.32;;;;;;;-1.72;100.00;101555.16;5029630;28;20061;-63
2022/12/27 06:28:15;;;;;;;0.28;0.28;;;;;;;-1.76;100.00;101548.44;5029522;28;20398;-62
2022/12/27 06:30:40;;;;;;;0.65;0.65;;;;;;;-1.79;100.00;101540.81;5026601;28;20038;-63
2022/12/27 06:33:05;;;;;;;3.63;0.20;;;;;;;-1.82;100.00;101531.41;5029703;28;20055;-62
2022/12/27 06:35:31;;;;;;;1.08;0.20;;;;;;;-1.82;100.00;101539.22;5029169;28;20033;-62
2022/12/27 06:37:56;;;;;;;2.45;0.20;;;;;;;-1.78;100.00;101534.69;5033831;28;20047;-61
2022/12/27 06:40:21;;;;;;;3.35;0.30;;;;;;;-1.77;100.00;101531.16;5025574;28;20041;-62
2022/12/27 06:42:47;;;;;;;1.52;0.15;;;;;;;-1.71;100.00;101528.22;5028981;28;20030;-63
2022/12/27 06:45:12;;;;;;;1.13;0.20;;;;;;;-1.71;100.00;101536.00;5024327;28;20021;-64
2022/12/27 06:47:37;;;;;;;2.65;0.10;;;;;;;-1.71;100.00;101541.22;5032226;28;20061;-62
2022/12/27 06:50:03;;;;;;;0.20;0.00;;;;;;;-1.67;100.00;101542.72;5023813;28;20033;-62
2022/12/27 06:52:29;;;;;;;0.93;0.20;;;;;;;-1.66;100.00;101538.34;5030038;28;20076;-63
2022/12/27 06:54:54;;;;;;;1.27;0.32;;;;;;;-1.64;100.00;101545.16;5032406;28;20029;-63
2022/12/27 06:57:19;;;;;;;0.85;0.10;;;;;;;-1.65;100.00;101548.69;5015865;28;20030;-62
2022/12/27 06:59:44;;;;;;;2.83;0.60;;;;;;;-1.62;100.00;101556.31;5025819;28;20040;-62
2022/12/27 07:02:10;;;;;;;0.20;0.00;;;;;;;-1.62;100.00;101550.28;5020425;28;20548;-63
2022/12/27 07:04:36;;;;;;;1.35;0.10;;;;;;;-1.58;100.00;101552.59;5012768;28;20026;-62
2022/12/27 07:07:02;;;;;;;2.03;0.55;;;;;;;-1.54;100.00;101548.06;5023214;28;20047;-62
2022/12/27 07:09:27;;;;;;;1.23;0.20;;;;;;;-1.52;100.00;101553.19;5021788;28;20034;-63
2022/12/27 07:11:52;;;;;;;0.30;0.10;;;;;;;-1.50;100.00;101551.34;5019048;28;20060;-64
2022/12/27 07:14:18;;;;;;;2.05;0.13;;;;;;;-1.47;100.00;101553.75;5016680;28;20034;-63
2022/12/27 07:16:43;;;;;;;1.25;0.10;;;;;;;-1.46;100.00;101547.66;5020727;28;20025;-63
2022/12/27 07:19:09;;;;;;;0.05;0.05;;;;;;;-1.48;100.00;101552.94;5018807;28;20036;-62
2022/12/27 07:21:35;;;;;;;2.28;0.20;;;;;;;-1.44;100.00;101562.25;5016715;28;20404;-62
2022/12/27 07:24:00;;;;;;;1.00;0.00;;;;;;;-1.49;100.00;101566.03;5021035;28;20033;-63
2022/12/27 07:26:28;;;;;;;0.32;0.20;;;;;;;-1.48;100.00;101567.69;5020182;28;20109;-62
2022/12/27 07:28:55;;;;;;;2.20;0.77;;;;;;;-1.49;100.00;101561.66;5025451;28;20052;-63
2022/12/27 07:31:23;;;;;;;1.50;0.10;;;;;;;-1.52;100.00;101560.97;5024118;28;20038;-63
2022/12/27 07:33:49;;;;;;;1.42;0.38;;;;;;;-1.56;100.00;101571.56;5021961;28;20021;-62
2022/12/27 07:36:18;;;;;;;0.45;0.20;;;;;;;-1.46;100.00;101576.25;5026532;28;20025;-63
2022/12/27 07:38:43;;;;;;;4.75;0.00;;;;;;;-1.33;100.00;101572.88;5029113;28;20029;-63
2022/12/27 07:41:11;;;;;;;0.50;0.10;;;;;;;-1.14;100.00;101569.19;5033786;28;20111;-62
2022/12/27 07:43:37;;;;;;;0.32;0.10;;;;;;;-1.07;100.00;101556.69;5023645;28;20557;-63
2022/12/27 07:46:07;;;;;;;0.98;0.40;;;;;;;-1.02;100.00;101567.66;5031093;28;20029;-63
2022/12/27 07:48:33;;;;;;;1.40;0.15;;;;;;;-1.01;100.00;101570.16;5032958;28;20125;-63
2022/12/27 07:50:59;;;;;;;0.50;0.50;;;;;;;-1.04;100.00;101572.13;5035534;28;20141;-62
2022/12/27 07:53:24;;;;;;;2.22;0.60;;;;;;;-1.02;100.00;101572.88;5031956;28;20128;-62
2022/12/27 07:55:50;;;;;;;0.35;0.00;;;;;;;-1.01;100.00;101569.34;5034570;28;20033;-62
2022/12/27 07:58:16;;;;;;;0.75;0.30;;;;;;;-1.04;100.00;101577.31;5028932;28;20488;-62
2022/12/27 08:00:42;;;;;;;0.65;0.45;;;;;;;-0.97;100.00;101569.06;5024237;28;20437;-62
2022/12/27 08:03:08;;;;;;;0.25;0.10;;;;;;;-0.88;100.00;101568.53;5042309;28;20430;-62
2022/12/27 08:05:33;;;;;;;0.20;0.00;;;;;;;-0.82;100.00;101567.34;5019018;28;20029;-62
2022/12/27 08:08:00;;;;;;;0.85;0.10;;;;;;;-0.70;100.00;101565.75;5023539;28;20083;-62
2022/12/27 08:10:26;;;;;;;0.00;0.00;;;;;;;-0.70;100.00;101564.00;5023086;28;20466;-61
2022/12/27 08:12:51;;;;;;;0.77;0.10;;;;;;;-0.71;100.00;101564.91;5024680;28;20073;-60
2022/12/27 08:15:17;;;;;;;0.13;0.13;;;;;;;-0.66;100.00;101562.06;5020922;28;20080;-62
2022/12/27 08:17:42;;;;;;;1.13;1.02;;;;;;;-0.64;100.00;101561.97;5025766;28;20038;-62
2022/12/27 08:20:12;;;;;;;1.13;0.20;;;;;;;-0.58;100.00;101564.19;5024230;28;20502;-62
2022/12/27 08:22:38;;;;;;;0.63;0.20;;;;;;;-0.55;100.00;101558.78;5034182;28;20034;-63
2022/12/27 08:25:03;;;;;;;2.95;0.30;;;;;;;-0.51;100.00;101566.34;5027438;28;20108;-61
2022/12/27 08:27:29;;;;;;;1.95;0.20;;;;;;;-0.48;100.00;101562.72;5023390;28;20128;-61
2022/12/27 08:29:54;;;;;;;3.97;0.00;;;;;;;-0.41;100.00;101565.75;5017251;28;20036;-61
2022/12/27 08:32:19;;;;;;;4.18;0.28;;;;;;;-0.37;100.00;101568.09;5030076;28;20040;-62
2022/12/27 08:34:45;;;;;;;1.67;0.10;;;;;;;-0.30;100.00;101572.00;5029055;28;20085;-61
2022/12/27 08:37:10;;;;;;;2.28;0.05;;;;;;;-0.25;100.00;101569.97;5025779;28;20029;-62
2022/12/27 08:39:35;;;;;;;2.42;0.15;;;;;;;-0.23;100.00;101569.88;5023195;28;20056;-61
2022/12/27 08:42:01;;;;;;;1.83;0.50;;;;;;;-0.24;100.00;101563.81;5022987;28;20108;-61
2022/12/27 08:44:26;;;;;;;0.43;0.17;;;;;;;-0.24;100.00;101563.81;5021501;28;20474;-61
2022/12/27 08:46:52;;;;;;;2.03;0.10;;;;;;;-0.23;100.00;101562.88;5020116;28;20029;-59
2022/12/27 08:49:17;;;;;;;0.10;0.10;;;;;;;-0.22;100.00;101561.94;5022184;28;20053;-59
2022/12/27 08:51:42;;;;;;;0.32;0.32;;;;;;;-0.21;100.00;101552.34;5019884;28;20059;-59
2022/12/27 08:54:08;;;;;;;0.73;0.10;;;;;;;-0.26;100.00;101554.41;5014353;28;20339;-60
2022/12/27 08:56:33;;;;;;;0.17;0.08;;;;;;;-0.28;100.00;101546.69;5017531;28;20053;-58
2022/12/27 08:58:59;;;;;;;0.57;0.10;;;;;;;-0.20;100.00;101548.81;5017549;28;20024;-54
2022/12/27 09:01:24;;;;;;;0.32;0.17;;;;;;;-0.13;100.00;101552.75;5021314;28;20046;-60
2022/12/27 09:03:50;;;;;;;1.65;0.28;;;;;;;-0.11;100.00;101548.25;5019009;28;20479;-59
2022/12/27 09:06:21;;;;;;;0.15;0.05;;;;;;;-0.06;100.00;101553.19;5026970;28;20045;-60
2022/12/27 09:08:47;;;;;;;0.43;0.10;;;;;;;-0.06;100.00;101556.63;5020976;28;20051;-59
2022/12/27 09:11:16;;;;;;;2.72;0.30;;;;;;;-0.01;100.00;101559.78;5025636;28;20187;-56
2022/12/27 09:13:42;;;;;;;3.10;0.13;;;;;;;0.02;100.00;101566.56;5019511;28;20041;-56
2022/12/27 09:16:13;;;;;;;1.95;0.10;;;;;;;0.03;100.00;101564.78;5021975;28;20172;-59
2022/12/27 09:18:40;;;;;;;1.05;0.15;;;;;;;0.03;100.00;101557.81;5020673;28;20034;-59
2022/12/27 09:21:11;;;;;;;2.90;0.28;;;;;;;0.07;100.00;101554.06;5027999;28;20030;-58
2022/12/27 09:23:37;;;;;;;0.75;0.17;;;;;;;0.07;100.00;101548.84;5030806;28;20036;-56
2022/12/27 09:26:11;;;;;;;0.47;0.10;;;;;;;0.20;100.00;101533.25;5023627;28;20033;-59
2022/12/27 09:28:37;;;;;;;0.28;0.10;;;;;;;0.32;100.00;101536.88;5030213;28;20104;-57
2022/12/27 09:31:04;;;;;;;0.40;0.10;;;;;;;0.44;100.00;101543.91;5027299;28;20105;-57
2022/12/27 09:33:30;;;;;;;0.93;0.25;;;;;;;0.48;100.00;101545.38;5033156;28;20034;-57
2022/12/27 09:36:09;;;;;;;4.40;0.30;;;;;;;0.57;100.00;101539.56;5018552;28;20087;-57
2022/12/27 09:38:35;;;;;;;0.63;0.32;;;;;;;0.65;100.00;101547.72;5020468;28;20025;-54
2022/12/27 09:41:04;;;;;;;3.38;1.83;;;;;;;0.77;100.00;101551.28;5014543;28;21592;-59
2022/12/27 09:43:53;;;;;;;0.30;0.00;;;;;;;0.91;100.00;101553.00;5018923;28;20038;-58
2022/12/27 09:46:25;;;;;;;6.55;0.47;;;;;;;1.05;100.00;101545.06;5014535;28;20025;-56
2022/12/27 09:48:54;;;;;;;1.35;0.45;;;;;;;1.26;100.00;101555.84;5022818;28;20542;-57
2022/12/27 09:51:27;;;;;;;7.78;1.13;;;;;;;1.42;100.00;101557.41;5017459;28;20055;-59
2022/12/27 09:54:03;;;;;;;1.17;0.75;;;;;;;1.71;100.00;101547.56;5019149;28;20404;-58
2022/12/27 09:56:33;;;;;;;13.75;6.43;;;;;;;1.87;100.00;101548.16;5020858;28;20097;-58
2022/12/27 09:59:24;;;;;;;9.00;3.60;;;;;;;2.11;100.00;101540.31;5024976;28;20451;-58
2022/12/27 10:01:49;;;;;;;9.15;3.55;;;;;;;2.29;100.00;101535.53;5021386;28;20030;-59
2022/12/27 10:04:17;;;;;;;3.45;1.67;;;;;;;2.45;100.00;101542.28;5020972;28;20029;-57
2022/12/27 10:06:49;;;;;;;1.05;0.95;;;;;;;2.66;100.00;101532.88;5025993;28;20041;-56
2022/12/27 10:09:30;;;;;;;;;;;;;;;2.93;100.00;101531.75;5028326;28;20025;-57
2022/12/27 10:12:19;;;;;;;4.72;0.75;;;;;;;3.10;100.00;101533.06;5029576;28;20322;-53
2022/12/27 10:15:30;;;;;;;1.00;0.40;;;;;;;3.22;100.00;101527.72;5013957;28;20034;-55
2022/12/27 10:18:09;;;;;;;4.63;0.73;;;;;;;3.41;100.00;101524.56;5003397;28;20454;-55
2022/12/27 10:21:00;;;;;;;3.60;0.70;;;;;;;3.58;100.00;101527.63;5023758;28;20109;-55
2022/12/27 10:23:33;;;;;;;3.45;1.52;;;;;;;3.52;100.00;101517.63;5025406;28;20581;-58
2022/12/27 10:26:03;;;;;;;2.58;0.15;;;;;;;3.63;100.00;101518.44;5036853;28;20017;-58
2022/12/27 10:28:38;;;;;;;5.55;0.88;;;;;;;3.80;100.00;101518.94;5032178;28;20444;-56
2022/12/27 10:31:04;;;;;;;0.52;0.47;;;;;;;3.85;100.00;101511.53;5020399;28;20021;-57
2022/12/27 10:33:32;;;;;;;6.93;0.15;;;;;;;3.99;100.00;101503.38;5022737;28;21404;-56
2022/12/27 10:36:09;;;;;;;0.30;0.10;;;;;;;4.07;100.00;101498.34;5029735;28;20029;-57
2022/12/27 10:38:34;;;;;;;1.05;0.85;;;;;;;4.22;100.00;101492.81;5020973;28;20573;-57
2022/12/27 10:41:35;;;;;;;5.47;0.30;;;;;;;4.33;100.00;101498.00;5024598;28;20097;-57
2022/12/27 10:44:00;;;;;;;1.58;0.77;;;;;;;4.38;100.00;101490.59;5037462;28;20124;-56
2022/12/27 10:46:29;;;;;;;0.98;0.88;;;;;;;4.42;100.00;101491.19;5028542;28;20156;-56
2022/12/27 10:49:06;;;;;;;0.70;0.22;;;;;;;4.44;100.00;101484.84;5025273;28;20052;-59
2022/12/27 10:51:37;;;;;;;6.78;0.73;;;;;;;4.40;100.00;101483.44;5021785;28;20040;-57
2022/12/27 10:54:08;;;;;;;1.65;0.22;;;;;;;4.31;100.00;101481.53;5018331;28;20124;-57
2022/12/27 10:56:37;;;;;;;5.72;0.77;;;;;;;4.27;100.00;101467.84;5019534;28;20029;-56
2022/12/27 10:59:14;;;;;;;3.50;0.43;;;;;;;4.31;100.00;101452.66;5023601;28;20038;-53
2022/12/27 11:01:40;;;;;;;2.35;0.60;;;;;;;4.43;100.00;101441.16;5020125;28;20038;-55
2022/12/27 11:04:08;;;;;;;1.92;0.45;;;;;;;4.51;100.00;101437.88;5027250;28;20475;-53
2022/12/27 11:06:34;;;;;;;1.55;0.10;;;;;;;4.57;100.00;101442.66;5023781;28;20040;-55
2022/12/27 11:09:26;;;;;;;1.77;1.00;;;;;;;4.79;100.00;101444.28;5020521;28;20029;-55
2022/12/27 11:12:12;;;;;;;7.32;1.13;;;;;;;4.98;100.00;101440.91;5024139;28;20343;-56
2022/12/27 11:14:37;;;;;;;6.47;0.35;;;;;;;5.03;100.00;101422.97;5025799;28;20044;-55
2022/12/27 11:17:12;;;;;;;4.03;0.30;;;;;;;5.15;100.00;101432.44;5022433;28;20029;-56
2022/12/27 11:19:43;;;;;;;0.63;0.30;;;;;;;5.25;100.00;101424.59;5023486;28;20128;-54
2022/12/27 11:22:09;;;;;;;5.03;0.38;;;;;;;5.38;100.00;101417.28;5024211;28;20061;-54
2022/12/27 11:24:35;;;;;;;2.03;0.17;;;;;;;5.59;100.00;101406.66;5023230;28;20041;-57
2022/12/27 11:27:01;;;;;;;5.30;1.65;;;;;;;5.88;100.00;101408.50;5023715;28;20549;-59
2022/12/27 11:29:29;;;;;;;8.35;2.05;;;;;;;6.05;100.00;101417.56;5021911;28;20211;-58
2022/12/27 11:31:55;;;;;;;4.72;0.55;;;;;;;6.09;100.00;101411.88;5017194;28;20049;-57
2022/12/27 11:34:33;;;;;;;8.20;0.43;;;;;;;6.19;100.00;101408.41;5024791;28;20249;-58
2022/12/27 11:37:05;;;;;;;5.57;0.95;;;;;;;6.31;100.00;101400.22;5024129;28;20057;-58
2022/12/27 11:39:45;;;;;;;6.32;1.10;;;;;;;6.50;100.00;101398.50;5017492;28;20376;-58
2022/12/27 11:42:38;;;;;;;0.85;0.10;;;;;;;6.52;100.00;101393.94;5019983;28;20502;-57
2022/12/27 11:45:17;;;;;;;3.83;0.15;;;;;;;6.62;100.00;101386.84;5023217;28;20037;-58
2022/12/27 11:47:45;;;;;;;1.75;0.52;;;;;;;6.65;100.00;101376.00;5021902;28;20033;-57
2022/12/27 11:50:23;;;;;;;1.73;0.20;;;;;;;6.64;100.00;101358.53;5021406;28;20033;-57
2022/12/27 11:53:06;;;;;;;4.03;0.15;;;;;;;6.83;100.00;101346.25;5028209;28;20483;-54
2022/12/27 11:55:40;;;;;;;7.15;1.50;;;;;;;6.87;100.00;101335.28;5020645;28;20588;-54
2022/12/27 11:58:30;;;;;;;18.42;7.25;;;;;;;6.97;100.00;101332.63;5018195;28;20104;-57
2022/12/27 12:01:17;;;;;;;6.55;1.75;;;;;;;6.95;100.00;101318.75;5026026;28;20510;-55
2022/12/27 12:04:17;;;;;;;15.48;5.93;;;;;;;6.99;100.00;101312.19;5024075;28;20065;-56
2022/12/27 12:06:58;;;;;;;9.95;3.00;;;;;;;7.04;100.00;101288.84;5030398;28;20049;-57
2022/12/27 12:09:34;;;;;;;29.05;11.80;;;;;;;7.18;100.00;101292.78;5023292;28;20042;-53
2022/12/27 12:12:27;;;;;;;5.13;2.40;;;;;;;7.22;100.00;101281.78;5021149;28;20036;-57
2022/12/27 12:15:10;;;;;;;32.70;12.00;;;;;;;7.40;100.00;101278.31;5013616;28;20065;-53
2022/12/27 12:17:38;;;;;;;14.20;5.53;;;;;;;7.51;100.00;101261.44;5024309;28;20403;-54
2022/12/27 12:20:40;;;;;;;9.05;4.15;;;;;;;7.56;100.00;101252.09;5014997;28;20494;-54
2022/12/27 12:23:06;;;;;;;24.25;9.05;;;;;;;7.53;100.00;101239.19;5017753;28;20438;-54
2022/12/27 12:26:13;;;;;;;8.38;3.80;;;;;;;7.71;100.00;101231.25;5016091;28;20033;-56
2022/12/27 12:29:18;;;;;;;7.15;2.47;;;;;;;7.81;100.00;101216.13;5022745;28;20160;-59
2022/12/27 12:32:07;;;;;;;10.35;2.92;;;;;;;7.95;100.00;101198.06;5023854;28;20106;-58
2022/12/27 12:34:59;;;;;;;6.82;2.97;;;;;;;7.96;100.00;101197.09;5012301;28;20041;-55
2022/12/27 12:37:43;;;;;;;;;;;;;;;8.06;100.00;101188.06;5023403;28;20095;-58
2022/12/27 12:40:31;;;;;;;5.25;0.68;;;;;;;8.10;100.00;101170.06;5021326;28;19931;-57
2022/12/27 12:43:15;;;;;;;1.25;0.90;;;;;;;8.12;100.00;101160.19;5020402;28;20380;-52
2022/12/27 12:45:52;;;;;;;5.82;1.55;;;;;;;8.14;100.00;101149.47;5019763;28;20026;-51
2022/12/27 12:48:45;;;;;;;4.20;1.98;;;;;;;8.20;100.00;101151.47;5018011;28;20138;-57
2022/12/27 12:51:42;;;;;;;3.28;0.68;;;;;;;8.18;100.00;101134.94;5019956;28;20049;-57
2022/12/27 12:54:28;;;;;;;6.88;0.30;;;;;;;8.19;100.00;101123.41;5030228;28;20388;-56
2022/12/27 12:57:35;;;;;;;4.13;1.02;;;;;;;8.29;100.00;101126.75;5025784;28;20109;-60
2022/12/27 13:00:29;;;;;;;3.13;1.38;;;;;;;8.33;100.00;101104.28;5025591;28;20053;-56
2022/12/27 13:03:16;;;;;;;5.05;0.95;;;;;;;8.37;100.00;101104.81;5028391;28;20124;-59
2022/12/27 13:05:50;;;;;;;3.50;1.13;;;;;;;8.42;100.00;101087.50;5025251;28;20072;-59
2022/12/27 13:08:30;;;;;;;6.22;0.20;;;;;;;8.45;100.00;101089.00;5019771;28;20061;-57
2022/12/27 13:11:24;;;;;;;14.77;1.77;;;;;;;8.47;100.00;101079.91;5022697;28;20909;-53
2022/12/27 13:14:13;;;;;;;2.70;1.23;;;;;;;8.51;100.00;101069.84;5028011;28;20037;-57
2022/12/27 13:17:12;;;;;;;2.85;0.20;;;;;;;8.52;100.00;101061.75;5024247;28;20099;-57